sensor_id;sensor_type;location;lat;lon;timestamp;P1;durP1;ratioP1;P2;durP2;ratioP2
23634;SDS011;11994;51.038;16.974;2023-03-23T00:02:23;37.30;;;21.50;;
23634;SDS011;11994;51.038;16.974;2023-03-23T00:04:49;37.00;;;21.60;;
23634;SDS011;11994;51.038;16.974;2023-03-23T00:07:15;27.70;;;18.10;;
23634;SDS011;11994;51.038;16.974;2023-03-23T00:09:46;25.90;;;16.80;;
23634;SDS011;11994;51.038;16.974;2023-03-23T00:12:24;26.10;;;16.20;;
23634;SDS011;11994;51.038;16.974;2023-03-23T00:14:53;25.30;;;16.90;;
23634;SDS011;11994;51.038;16.974;2023-03-23T00:17:19;24.50;;;16.10;;
23634;SDS011;11994;51.038;16.974;2023-03-23T00:19:45;26.40;;;15.60;;
23634;SDS011;11994;51.038;16.974;2023-03-23T00:22:14;22.60;;;15.70;;
23634;SDS011;11994;51.038;16.974;2023-03-23T00:27:07;25.70;;;16.80;;
23634;SDS011;11994;51.038;16.974;2023-03-23T00:29:39;21.80;;;16.60;;
23634;SDS011;11994;51.038;16.974;2023-03-23T00:32:07;22.30;;;16.10;;
23634;SDS011;11994;51.038;16.974;2023-03-23T00:34:38;26.80;;;17.30;;
23634;SDS011;11994;51.038;16.974;2023-03-23T00:37:06;26.90;;;18.00;;
23634;SDS011;11994;51.038;16.974;2023-03-23T00:39:32;28.30;;;16.60;;
23634;SDS011;11994;51.038;16.974;2023-03-23T00:41:58;26.50;;;15.20;;
23634;SDS011;11994;51.038;16.974;2023-03-23T00:44:30;24.40;;;16.70;;
23634;SDS011;11994;51.038;16.974;2023-03-23T00:46:57;23.90;;;16.10;;
23634;SDS011;11994;51.038;16.974;2023-03-23T00:49:23;25.50;;;17.20;;
23634;SDS011;11994;51.038;16.974;2023-03-23T00:51:50;25.00;;;16.90;;
23634;SDS011;11994;51.038;16.974;2023-03-23T00:54:17;26.40;;;17.30;;
23634;SDS011;11994;51.038;16.974;2023-03-23T00:56:42;28.60;;;17.80;;
23634;SDS011;11994;51.038;16.974;2023-03-23T00:59:07;25.70;;;17.00;;
23634;SDS011;11994;51.038;16.974;2023-03-23T01:01:33;27.40;;;17.20;;
23634;SDS011;11994;51.038;16.974;2023-03-23T01:04:00;27.30;;;17.30;;
23634;SDS011;11994;51.038;16.974;2023-03-23T01:06:29;27.20;;;16.30;;
23634;SDS011;11994;51.038;16.974;2023-03-23T01:08:56;24.70;;;15.20;;
23634;SDS011;11994;51.038;16.974;2023-03-23T01:11:22;21.10;;;14.80;;
23634;SDS011;11994;51.038;16.974;2023-03-23T01:13:49;25.10;;;15.80;;
23634;SDS011;11994;51.038;16.974;2023-03-23T01:16:15;22.90;;;15.70;;
23634;SDS011;11994;51.038;16.974;2023-03-23T01:18:41;22.20;;;14.20;;
23634;SDS011;11994;51.038;16.974;2023-03-23T01:21:08;20.60;;;14.50;;
23634;SDS011;11994;51.038;16.974;2023-03-23T01:23:36;21.00;;;14.80;;
23634;SDS011;11994;51.038;16.974;2023-03-23T01:26:05;22.00;;;15.10;;
23634;SDS011;11994;51.038;16.974;2023-03-23T01:28:35;22.70;;;14.50;;
23634;SDS011;11994;51.038;16.974;2023-03-23T01:31:02;20.20;;;13.00;;
23634;SDS011;11994;51.038;16.974;2023-03-23T01:33:29;20.50;;;14.00;;
23634;SDS011;11994;51.038;16.974;2023-03-23T01:35:55;20.20;;;13.50;;
23634;SDS011;11994;51.038;16.974;2023-03-23T01:38:21;18.30;;;12.80;;
23634;SDS011;11994;51.038;16.974;2023-03-23T01:40:46;17.30;;;12.00;;
23634;SDS011;11994;51.038;16.974;2023-03-23T01:43:12;16.00;;;10.90;;
23634;SDS011;11994;51.038;16.974;2023-03-23T01:45:39;17.80;;;10.70;;
23634;SDS011;11994;51.038;16.974;2023-03-23T01:50:42;17.30;;;10.90;;
23634;SDS011;11994;51.038;16.974;2023-03-23T01:53:14;13.90;;;9.70;;
23634;SDS011;11994;51.038;16.974;2023-03-23T01:55:40;14.60;;;9.80;;
23634;SDS011;11994;51.038;16.974;2023-03-23T01:58:08;13.80;;;9.60;;
23634;SDS011;11994;51.038;16.974;2023-03-23T02:00:35;14.30;;;9.90;;
23634;SDS011;11994;51.038;16.974;2023-03-23T02:03:05;14.10;;;10.50;;
23634;SDS011;11994;51.038;16.974;2023-03-23T02:05:34;17.60;;;10.20;;
23634;SDS011;11994;51.038;16.974;2023-03-23T02:08:04;16.90;;;10.50;;
23634;SDS011;11994;51.038;16.974;2023-03-23T02:10:33;16.10;;;9.70;;
23634;SDS011;11994;51.038;16.974;2023-03-23T02:13:01;17.00;;;10.50;;
23634;SDS011;11994;51.038;16.974;2023-03-23T02:15:50;14.60;;;9.50;;
23634;SDS011;11994;51.038;16.974;2023-03-23T02:29:43;15.20;;;9.90;;
23634;SDS011;11994;51.038;16.974;2023-03-23T02:32:22;14.00;;;9.10;;
23634;SDS011;11994;51.038;16.974;2023-03-23T02:34:59;13.60;;;9.50;;
23634;SDS011;11994;51.038;16.974;2023-03-23T02:37:39;17.00;;;9.50;;
23634;SDS011;11994;51.038;16.974;2023-03-23T02:42:42;13.50;;;8.90;;
23634;SDS011;11994;51.038;16.974;2023-03-23T02:45:12;12.60;;;8.10;;
23634;SDS011;11994;51.038;16.974;2023-03-23T02:47:40;12.90;;;9.20;;
23634;SDS011;11994;51.038;16.974;2023-03-23T02:50:10;13.30;;;8.50;;
23634;SDS011;11994;51.038;16.974;2023-03-23T02:52:40;12.90;;;9.30;;
23634;SDS011;11994;51.038;16.974;2023-03-23T02:55:08;12.80;;;8.60;;
23634;SDS011;11994;51.038;16.974;2023-03-23T02:57:36;16.50;;;9.70;;
23634;SDS011;11994;51.038;16.974;2023-03-23T03:00:03;14.70;;;9.00;;
23634;SDS011;11994;51.038;16.974;2023-03-23T03:02:35;15.60;;;8.90;;
23634;SDS011;11994;51.038;16.974;2023-03-23T03:07:58;13.80;;;8.40;;
23634;SDS011;11994;51.038;16.974;2023-03-23T03:10:26;12.90;;;8.80;;
23634;SDS011;11994;51.038;16.974;2023-03-23T03:13:20;13.40;;;8.90;;
23634;SDS011;11994;51.038;16.974;2023-03-23T03:18:44;13.00;;;8.50;;
23634;SDS011;11994;51.038;16.974;2023-03-23T03:21:17;13.20;;;9.00;;
23634;SDS011;11994;51.038;16.974;2023-03-23T03:23:50;15.90;;;8.40;;
23634;SDS011;11994;51.038;16.974;2023-03-23T03:26:18;15.20;;;9.00;;
23634;SDS011;11994;51.038;16.974;2023-03-23T03:28:46;13.60;;;9.00;;
23634;SDS011;11994;51.038;16.974;2023-03-23T03:31:13;12.00;;;8.60;;
23634;SDS011;11994;51.038;16.974;2023-03-23T03:33:42;11.40;;;7.70;;
23634;SDS011;11994;51.038;16.974;2023-03-23T03:36:08;14.50;;;7.80;;
23634;SDS011;11994;51.038;16.974;2023-03-23T03:38:44;10.70;;;7.10;;
23634;SDS011;11994;51.038;16.974;2023-03-23T03:41:12;10.00;;;7.20;;
23634;SDS011;11994;51.038;16.974;2023-03-23T03:43:37;11.60;;;7.60;;
23634;SDS011;11994;51.038;16.974;2023-03-23T03:46:02;10.00;;;7.30;;
23634;SDS011;11994;51.038;16.974;2023-03-23T03:48:28;11.90;;;6.80;;
23634;SDS011;11994;51.038;16.974;2023-03-23T03:50:54;8.90;;;7.40;;
23634;SDS011;11994;51.038;16.974;2023-03-23T03:53:21;10.60;;;6.90;;
23634;SDS011;11994;51.038;16.974;2023-03-23T03:55:47;9.40;;;6.90;;
23634;SDS011;11994;51.038;16.974;2023-03-23T03:58:14;10.80;;;6.80;;
23634;SDS011;11994;51.038;16.974;2023-03-23T04:00:40;10.00;;;7.40;;
23634;SDS011;11994;51.038;16.974;2023-03-23T04:03:07;12.30;;;7.20;;
23634;SDS011;11994;51.038;16.974;2023-03-23T04:05:32;11.00;;;6.80;;
23634;SDS011;11994;51.038;16.974;2023-03-23T04:07:58;8.90;;;6.40;;
23634;SDS011;11994;51.038;16.974;2023-03-23T04:10:26;11.30;;;6.90;;
23634;SDS011;11994;51.038;16.974;2023-03-23T04:12:54;8.60;;;6.50;;
23634;SDS011;11994;51.038;16.974;2023-03-23T04:15:19;13.60;;;7.30;;
23634;SDS011;11994;51.038;16.974;2023-03-23T04:17:45;10.40;;;6.70;;
23634;SDS011;11994;51.038;16.974;2023-03-23T04:20:10;10.10;;;6.60;;
23634;SDS011;11994;51.038;16.974;2023-03-23T04:22:39;9.10;;;6.90;;
23634;SDS011;11994;51.038;16.974;2023-03-23T04:25:08;7.30;;;5.50;;
23634;SDS011;11994;51.038;16.974;2023-03-23T04:27:37;7.40;;;5.70;;
23634;SDS011;11994;51.038;16.974;2023-03-23T04:30:03;8.00;;;5.50;;
23634;SDS011;11994;51.038;16.974;2023-03-23T04:32:30;11.30;;;5.80;;
23634;SDS011;11994;51.038;16.974;2023-03-23T04:34:56;10.30;;;5.70;;
23634;SDS011;11994;51.038;16.974;2023-03-23T04:37:26;9.80;;;6.10;;
23634;SDS011;11994;51.038;16.974;2023-03-23T04:39:54;9.80;;;6.10;;
23634;SDS011;11994;51.038;16.974;2023-03-23T04:42:28;8.20;;;5.80;;
23634;SDS011;11994;51.038;16.974;2023-03-23T04:44:58;6.70;;;5.40;;
23634;SDS011;11994;51.038;16.974;2023-03-23T04:47:25;10.20;;;6.20;;
23634;SDS011;11994;51.038;16.974;2023-03-23T04:49:55;8.20;;;5.70;;
23634;SDS011;11994;51.038;16.974;2023-03-23T04:52:21;12.20;;;6.00;;
23634;SDS011;11994;51.038;16.974;2023-03-23T04:54:46;7.60;;;5.80;;
23634;SDS011;11994;51.038;16.974;2023-03-23T04:57:12;12.70;;;6.10;;
23634;SDS011;11994;51.038;16.974;2023-03-23T04:59:38;13.70;;;6.10;;
23634;SDS011;11994;51.038;16.974;2023-03-23T05:02:03;11.30;;;6.70;;
23634;SDS011;11994;51.038;16.974;2023-03-23T05:04:28;13.10;;;6.60;;
23634;SDS011;11994;51.038;16.974;2023-03-23T05:06:54;11.30;;;6.30;;
23634;SDS011;11994;51.038;16.974;2023-03-23T05:09:19;9.40;;;5.90;;
23634;SDS011;11994;51.038;16.974;2023-03-23T05:11:45;8.80;;;6.30;;
23634;SDS011;11994;51.038;16.974;2023-03-23T05:14:11;12.00;;;6.40;;
23634;SDS011;11994;51.038;16.974;2023-03-23T05:16:36;10.00;;;6.30;;
23634;SDS011;11994;51.038;16.974;2023-03-23T05:19:02;8.80;;;5.70;;
23634;SDS011;11994;51.038;16.974;2023-03-23T05:21:29;9.10;;;6.00;;
23634;SDS011;11994;51.038;16.974;2023-03-23T05:23:55;10.70;;;5.80;;
23634;SDS011;11994;51.038;16.974;2023-03-23T05:26:21;8.70;;;6.20;;
23634;SDS011;11994;51.038;16.974;2023-03-23T05:28:49;11.80;;;6.60;;
23634;SDS011;11994;51.038;16.974;2023-03-23T05:31:17;8.70;;;5.90;;
23634;SDS011;11994;51.038;16.974;2023-03-23T05:33:43;9.80;;;6.00;;
23634;SDS011;11994;51.038;16.974;2023-03-23T05:36:09;8.30;;;5.60;;
23634;SDS011;11994;51.038;16.974;2023-03-23T05:38:35;11.80;;;6.40;;
23634;SDS011;11994;51.038;16.974;2023-03-23T05:41:03;9.70;;;5.90;;
23634;SDS011;11994;51.038;16.974;2023-03-23T05:43:29;9.90;;;5.70;;
23634;SDS011;11994;51.038;16.974;2023-03-23T05:45:55;9.90;;;5.60;;
23634;SDS011;11994;51.038;16.974;2023-03-23T05:48:20;9.80;;;5.60;;
23634;SDS011;11994;51.038;16.974;2023-03-23T05:50:46;12.20;;;5.00;;
23634;SDS011;11994;51.038;16.974;2023-03-23T05:53:12;10.00;;;5.00;;
23634;SDS011;11994;51.038;16.974;2023-03-23T05:55:38;8.00;;;4.80;;
23634;SDS011;11994;51.038;16.974;2023-03-23T05:58:03;8.00;;;4.60;;
23634;SDS011;11994;51.038;16.974;2023-03-23T06:00:28;7.70;;;4.40;;
23634;SDS011;11994;51.038;16.974;2023-03-23T06:02:56;9.70;;;4.90;;
23634;SDS011;11994;51.038;16.974;2023-03-23T06:05:22;7.10;;;4.70;;
23634;SDS011;11994;51.038;16.974;2023-03-23T06:07:48;9.70;;;5.10;;
23634;SDS011;11994;51.038;16.974;2023-03-23T06:10:14;9.90;;;4.90;;
23634;SDS011;11994;51.038;16.974;2023-03-23T06:12:41;9.70;;;5.10;;
23634;SDS011;11994;51.038;16.974;2023-03-23T06:15:07;7.30;;;4.70;;
23634;SDS011;11994;51.038;16.974;2023-03-23T06:17:34;12.90;;;5.30;;
23634;SDS011;11994;51.038;16.974;2023-03-23T06:20:01;8.60;;;5.10;;
23634;SDS011;11994;51.038;16.974;2023-03-23T06:22:29;8.20;;;4.40;;
23634;SDS011;11994;51.038;16.974;2023-03-23T06:24:55;8.00;;;4.50;;
23634;SDS011;11994;51.038;16.974;2023-03-23T06:27:22;9.20;;;4.10;;
23634;SDS011;11994;51.038;16.974;2023-03-23T06:29:48;5.80;;;3.70;;
23634;SDS011;11994;51.038;16.974;2023-03-23T06:32:13;6.70;;;4.10;;
23634;SDS011;11994;51.038;16.974;2023-03-23T06:34:40;8.50;;;4.60;;
23634;SDS011;11994;51.038;16.974;2023-03-23T06:37:08;7.80;;;4.10;;
23634;SDS011;11994;51.038;16.974;2023-03-23T06:39:34;11.60;;;4.30;;
23634;SDS011;11994;51.038;16.974;2023-03-23T06:42:02;6.60;;;4.30;;
23634;SDS011;11994;51.038;16.974;2023-03-23T06:44:27;11.60;;;4.50;;
23634;SDS011;11994;51.038;16.974;2023-03-23T06:46:53;10.80;;;4.10;;
23634;SDS011;11994;51.038;16.974;2023-03-23T06:49:18;6.80;;;4.00;;
23634;SDS011;11994;51.038;16.974;2023-03-23T06:51:44;9.90;;;4.60;;
23634;SDS011;11994;51.038;16.974;2023-03-23T06:54:09;7.20;;;4.30;;
23634;SDS011;11994;51.038;16.974;2023-03-23T06:56:34;7.30;;;4.30;;
23634;SDS011;11994;51.038;16.974;2023-03-23T06:59:00;12.20;;;5.00;;
23634;SDS011;11994;51.038;16.974;2023-03-23T07:01:25;6.80;;;4.70;;
23634;SDS011;11994;51.038;16.974;2023-03-23T07:03:53;6.50;;;4.10;;
23634;SDS011;11994;51.038;16.974;2023-03-23T07:06:18;8.50;;;4.60;;
23634;SDS011;11994;51.038;16.974;2023-03-23T07:08:44;6.30;;;4.50;;
23634;SDS011;11994;51.038;16.974;2023-03-23T07:11:10;9.10;;;4.60;;
23634;SDS011;11994;51.038;16.974;2023-03-23T07:13:35;6.60;;;4.40;;
23634;SDS011;11994;51.038;16.974;2023-03-23T07:16:03;10.20;;;4.60;;
23634;SDS011;11994;51.038;16.974;2023-03-23T07:18:29;7.20;;;4.20;;
23634;SDS011;11994;51.038;16.974;2023-03-23T07:20:55;6.00;;;4.10;;
23634;SDS011;11994;51.038;16.974;2023-03-23T07:23:20;12.70;;;5.00;;
23634;SDS011;11994;51.038;16.974;2023-03-23T07:25:46;10.10;;;4.60;;
23634;SDS011;11994;51.038;16.974;2023-03-23T07:28:13;9.50;;;4.70;;
23634;SDS011;11994;51.038;16.974;2023-03-23T07:30:39;10.10;;;4.70;;
23634;SDS011;11994;51.038;16.974;2023-03-23T07:33:05;9.70;;;4.80;;
23634;SDS011;11994;51.038;16.974;2023-03-23T07:35:31;9.50;;;4.40;;
23634;SDS011;11994;51.038;16.974;2023-03-23T07:37:57;8.80;;;4.80;;
23634;SDS011;11994;51.038;16.974;2023-03-23T07:40:23;8.10;;;4.80;;
23634;SDS011;11994;51.038;16.974;2023-03-23T07:42:52;11.40;;;4.80;;
23634;SDS011;11994;51.038;16.974;2023-03-23T07:45:20;10.80;;;4.80;;
23634;SDS011;11994;51.038;16.974;2023-03-23T07:47:46;10.10;;;5.30;;
23634;SDS011;11994;51.038;16.974;2023-03-23T07:50:11;10.10;;;4.80;;
23634;SDS011;11994;51.038;16.974;2023-03-23T07:52:37;12.30;;;4.90;;
23634;SDS011;11994;51.038;16.974;2023-03-23T07:55:04;9.90;;;5.30;;
23634;SDS011;11994;51.038;16.974;2023-03-23T07:57:31;10.70;;;5.20;;
23634;SDS011;11994;51.038;16.974;2023-03-23T07:59:57;8.60;;;5.20;;
23634;SDS011;11994;51.038;16.974;2023-03-23T08:02:23;12.60;;;5.40;;
23634;SDS011;11994;51.038;16.974;2023-03-23T08:04:49;9.10;;;5.80;;
23634;SDS011;11994;51.038;16.974;2023-03-23T08:07:15;8.30;;;5.40;;
23634;SDS011;11994;51.038;16.974;2023-03-23T08:09:45;10.20;;;5.30;;
23634;SDS011;11994;51.038;16.974;2023-03-23T08:12:12;12.00;;;5.60;;
23634;SDS011;11994;51.038;16.974;2023-03-23T08:14:39;20.30;;;6.40;;
23634;SDS011;11994;51.038;16.974;2023-03-23T08:17:06;15.70;;;6.40;;
23634;SDS011;11994;51.038;16.974;2023-03-23T08:19:33;10.10;;;5.10;;
23634;SDS011;11994;51.038;16.974;2023-03-23T08:22:02;8.90;;;5.10;;
23634;SDS011;11994;51.038;16.974;2023-03-23T08:24:28;8.30;;;4.70;;
23634;SDS011;11994;51.038;16.974;2023-03-23T08:26:53;7.60;;;4.20;;
23634;SDS011;11994;51.038;16.974;2023-03-23T08:29:19;5.60;;;3.20;;
23634;SDS011;11994;51.038;16.974;2023-03-23T08:31:45;6.10;;;3.40;;
23634;SDS011;11994;51.038;16.974;2023-03-23T08:34:10;8.70;;;3.00;;
23634;SDS011;11994;51.038;16.974;2023-03-23T08:36:36;8.00;;;2.90;;
23634;SDS011;11994;51.038;16.974;2023-03-23T08:39:02;5.30;;;2.70;;
23634;SDS011;11994;51.038;16.974;2023-03-23T08:41:30;4.80;;;3.00;;
23634;SDS011;11994;51.038;16.974;2023-03-23T08:43:56;6.90;;;3.40;;
23634;SDS011;11994;51.038;16.974;2023-03-23T08:46:22;5.70;;;3.50;;
23634;SDS011;11994;51.038;16.974;2023-03-23T08:48:47;6.40;;;3.10;;
23634;SDS011;11994;51.038;16.974;2023-03-23T08:51:12;9.40;;;3.30;;
23634;SDS011;11994;51.038;16.974;2023-03-23T08:53:38;4.80;;;2.70;;
23634;SDS011;11994;51.038;16.974;2023-03-23T08:56:05;7.20;;;2.40;;
23634;SDS011;11994;51.038;16.974;2023-03-23T08:58:32;3.60;;;2.30;;
23634;SDS011;11994;51.038;16.974;2023-03-23T09:00:59;5.50;;;3.70;;
23634;SDS011;11994;51.038;16.974;2023-03-23T09:03:25;14.20;;;9.30;;
23634;SDS011;11994;51.038;16.974;2023-03-23T09:05:50;24.70;;;14.30;;
23634;SDS011;11994;51.038;16.974;2023-03-23T09:08:16;73.30;;;49.80;;
23634;SDS011;11994;51.038;16.974;2023-03-23T09:10:42;65.40;;;41.20;;
23634;SDS011;11994;51.038;16.974;2023-03-23T09:13:08;9.40;;;4.10;;
23634;SDS011;11994;51.038;16.974;2023-03-23T09:15:33;18.80;;;11.00;;
23634;SDS011;11994;51.038;16.974;2023-03-23T09:17:59;20.60;;;12.80;;
23634;SDS011;11994;51.038;16.974;2023-03-23T09:20:26;19.60;;;12.30;;
23634;SDS011;11994;51.038;16.974;2023-03-23T09:22:54;6.00;;;3.50;;
23634;SDS011;11994;51.038;16.974;2023-03-23T09:25:22;4.50;;;2.70;;
23634;SDS011;11994;51.038;16.974;2023-03-23T09:27:54;7.20;;;2.80;;
23634;SDS011;11994;51.038;16.974;2023-03-23T09:30:21;6.70;;;2.80;;
23634;SDS011;11994;51.038;16.974;2023-03-23T09:32:49;7.20;;;2.30;;
23634;SDS011;11994;51.038;16.974;2023-03-23T09:35:15;5.80;;;2.70;;
23634;SDS011;11994;51.038;16.974;2023-03-23T09:37:41;4.40;;;2.40;;
23634;SDS011;11994;51.038;16.974;2023-03-23T09:40:13;5.00;;;3.20;;
23634;SDS011;11994;51.038;16.974;2023-03-23T09:42:47;12.60;;;2.80;;
23634;SDS011;11994;51.038;16.974;2023-03-23T09:53:44;4.90;;;2.30;;
23634;SDS011;11994;51.038;16.974;2023-03-23T09:56:14;5.10;;;2.70;;
23634;SDS011;11994;51.038;16.974;2023-03-23T09:58:43;5.70;;;3.30;;
23634;SDS011;11994;51.038;16.974;2023-03-23T10:01:16;7.10;;;3.50;;
23634;SDS011;11994;51.038;16.974;2023-03-23T10:03:47;6.40;;;2.80;;
23634;SDS011;11994;51.038;16.974;2023-03-23T10:06:14;4.30;;;2.10;;
23634;SDS011;11994;51.038;16.974;2023-03-23T10:08:43;3.90;;;1.90;;
23634;SDS011;11994;51.038;16.974;2023-03-23T10:11:18;11.10;;;2.40;;
23634;SDS011;11994;51.038;16.974;2023-03-23T10:20:13;6.40;;;3.10;;
23634;SDS011;11994;51.038;16.974;2023-03-23T10:22:58;9.70;;;3.30;;
23634;SDS011;11994;51.038;16.974;2023-03-23T10:25:29;5.60;;;2.90;;
23634;SDS011;11994;51.038;16.974;2023-03-23T10:33:10;3.10;;;1.20;;
23634;SDS011;11994;51.038;16.974;2023-03-23T10:38:25;2.90;;;1.20;;
23634;SDS011;11994;51.038;16.974;2023-03-23T10:40:59;4.60;;;1.10;;
23634;SDS011;11994;51.038;16.974;2023-03-23T10:43:30;3.10;;;1.20;;
23634;SDS011;11994;51.038;16.974;2023-03-23T10:46:03;4.30;;;1.00;;
23634;SDS011;11994;51.038;16.974;2023-03-23T10:48:39;4.60;;;1.20;;
23634;SDS011;11994;51.038;16.974;2023-03-23T10:51:09;6.20;;;1.10;;
23634;SDS011;11994;51.038;16.974;2023-03-23T10:53:39;3.40;;;1.10;;
23634;SDS011;11994;51.038;16.974;2023-03-23T10:56:27;3.60;;;1.00;;
23634;SDS011;11994;51.038;16.974;2023-03-23T10:58:59;4.20;;;1.20;;
23634;SDS011;11994;51.038;16.974;2023-03-23T11:01:35;5.90;;;1.70;;
23634;SDS011;11994;51.038;16.974;2023-03-23T11:04:01;5.80;;;1.30;;
23634;SDS011;11994;51.038;16.974;2023-03-23T11:06:29;3.90;;;1.20;;
23634;SDS011;11994;51.038;16.974;2023-03-23T11:09:01;3.20;;;1.30;;
23634;SDS011;11994;51.038;16.974;2023-03-23T11:11:37;4.10;;;1.20;;
23634;SDS011;11994;51.038;16.974;2023-03-23T11:16:51;5.70;;;1.20;;
23634;SDS011;11994;51.038;16.974;2023-03-23T11:19:24;4.50;;;1.50;;
23634;SDS011;11994;51.038;16.974;2023-03-23T11:21:52;4.60;;;1.30;;
23634;SDS011;11994;51.038;16.974;2023-03-23T11:24:26;4.40;;;0.90;;
23634;SDS011;11994;51.038;16.974;2023-03-23T11:26:52;3.80;;;1.10;;
23634;SDS011;11994;51.038;16.974;2023-03-23T11:29:19;3.30;;;0.90;;
23634;SDS011;11994;51.038;16.974;2023-03-23T11:31:48;3.40;;;1.30;;
23634;SDS011;11994;51.038;16.974;2023-03-23T11:34:20;7.00;;;1.40;;
23634;SDS011;11994;51.038;16.974;2023-03-23T11:39:28;6.40;;;1.10;;
23634;SDS011;11994;51.038;16.974;2023-03-23T11:41:57;1.80;;;1.00;;
23634;SDS011;11994;51.038;16.974;2023-03-23T11:44:31;4.00;;;1.40;;
23634;SDS011;11994;51.038;16.974;2023-03-23T11:53:10;3.80;;;1.30;;
23634;SDS011;11994;51.038;16.974;2023-03-23T11:58:14;5.20;;;1.10;;
23634;SDS011;11994;51.038;16.974;2023-03-23T12:01:04;2.90;;;1.40;;
23634;SDS011;11994;51.038;16.974;2023-03-23T12:09:38;5.10;;;1.70;;
23634;SDS011;11994;51.038;16.974;2023-03-23T12:12:47;3.20;;;1.30;;
23634;SDS011;11994;51.038;16.974;2023-03-23T12:15:34;3.30;;;1.30;;
23634;SDS011;11994;51.038;16.974;2023-03-23T12:18:36;4.40;;;1.50;;
23634;SDS011;11994;51.038;16.974;2023-03-23T12:26:48;4.40;;;1.50;;
23634;SDS011;11994;51.038;16.974;2023-03-23T12:40:30;3.00;;;1.80;;
23634;SDS011;11994;51.038;16.974;2023-03-23T12:49:03;4.60;;;1.70;;
23634;SDS011;11994;51.038;16.974;2023-03-23T12:51:33;7.40;;;2.20;;
23634;SDS011;11994;51.038;16.974;2023-03-23T13:05:00;4.70;;;2.60;;
23634;SDS011;11994;51.038;16.974;2023-03-23T13:07:30;6.10;;;3.30;;
23634;SDS011;11994;51.038;16.974;2023-03-23T13:12:29;6.80;;;3.30;;
23634;SDS011;11994;51.038;16.974;2023-03-23T13:15:20;3.60;;;2.10;;
23634;SDS011;11994;51.038;16.974;2023-03-23T13:20:39;4.30;;;2.20;;
23634;SDS011;11994;51.038;16.974;2023-03-23T13:23:19;14.00;;;3.20;;
23634;SDS011;11994;51.038;16.974;2023-03-23T13:28:26;9.10;;;3.80;;
23634;SDS011;11994;51.038;16.974;2023-03-23T13:30:54;9.40;;;3.80;;
23634;SDS011;11994;51.038;16.974;2023-03-23T13:33:21;5.30;;;3.20;;
23634;SDS011;11994;51.038;16.974;2023-03-23T13:35:48;14.80;;;5.50;;
23634;SDS011;11994;51.038;16.974;2023-03-23T13:38:24;7.70;;;4.50;;
23634;SDS011;11994;51.038;16.974;2023-03-23T13:40:53;7.20;;;3.70;;
23634;SDS011;11994;51.038;16.974;2023-03-23T13:46:06;16.00;;;8.60;;
23634;SDS011;11994;51.038;16.974;2023-03-23T13:48:42;20.60;;;8.90;;
23634;SDS011;11994;51.038;16.974;2023-03-23T13:51:24;38.30;;;13.40;;
23634;SDS011;11994;51.038;16.974;2023-03-23T13:54:12;36.00;;;15.40;;
23634;SDS011;11994;51.038;16.974;2023-03-23T13:56:53;37.40;;;14.90;;
23634;SDS011;11994;51.038;16.974;2023-03-23T14:01:53;27.90;;;11.80;;
23634;SDS011;11994;51.038;16.974;2023-03-23T14:04:20;41.20;;;16.80;;
23634;SDS011;11994;51.038;16.974;2023-03-23T14:06:47;18.10;;;8.70;;
23634;SDS011;11994;51.038;16.974;2023-03-23T14:09:33;23.90;;;10.50;;
23634;SDS011;11994;51.038;16.974;2023-03-23T14:12:04;25.30;;;11.10;;
23634;SDS011;11994;51.038;16.974;2023-03-23T14:14:42;20.10;;;10.00;;
23634;SDS011;11994;51.038;16.974;2023-03-23T14:17:26;21.70;;;12.00;;
23634;SDS011;11994;51.038;16.974;2023-03-23T14:19:55;24.60;;;13.90;;
23634;SDS011;11994;51.038;16.974;2023-03-23T14:22:27;14.90;;;8.10;;
23634;SDS011;11994;51.038;16.974;2023-03-23T14:25:00;12.80;;;7.70;;
23634;SDS011;11994;51.038;16.974;2023-03-23T14:27:38;12.70;;;4.20;;
23634;SDS011;11994;51.038;16.974;2023-03-23T14:30:06;6.20;;;3.00;;
23634;SDS011;11994;51.038;16.974;2023-03-23T14:32:33;7.30;;;2.70;;
23634;SDS011;11994;51.038;16.974;2023-03-23T14:35:00;6.60;;;3.80;;
23634;SDS011;11994;51.038;16.974;2023-03-23T14:37:31;4.40;;;2.10;;
23634;SDS011;11994;51.038;16.974;2023-03-23T14:40:00;4.20;;;2.40;;
23634;SDS011;11994;51.038;16.974;2023-03-23T14:42:30;4.10;;;2.40;;
23634;SDS011;11994;51.038;16.974;2023-03-23T14:45:00;5.40;;;3.00;;
23634;SDS011;11994;51.038;16.974;2023-03-23T14:47:35;6.00;;;3.00;;
23634;SDS011;11994;51.038;16.974;2023-03-23T14:50:06;6.20;;;3.30;;
23634;SDS011;11994;51.038;16.974;2023-03-23T14:52:55;5.70;;;2.90;;
23634;SDS011;11994;51.038;16.974;2023-03-23T14:55:27;6.90;;;3.60;;
23634;SDS011;11994;51.038;16.974;2023-03-23T14:57:56;6.50;;;2.80;;
23634;SDS011;11994;51.038;16.974;2023-03-23T15:00:34;6.50;;;3.20;;
23634;SDS011;11994;51.038;16.974;2023-03-23T15:03:03;5.20;;;2.80;;
23634;SDS011;11994;51.038;16.974;2023-03-23T15:05:34;7.70;;;3.00;;
23634;SDS011;11994;51.038;16.974;2023-03-23T15:08:05;5.50;;;3.00;;
23634;SDS011;11994;51.038;16.974;2023-03-23T15:10:35;5.00;;;2.90;;
23634;SDS011;11994;51.038;16.974;2023-03-23T15:13:01;5.40;;;2.70;;
23634;SDS011;11994;51.038;16.974;2023-03-23T15:15:35;5.10;;;2.80;;
23634;SDS011;11994;51.038;16.974;2023-03-23T15:18:02;4.40;;;2.70;;
23634;SDS011;11994;51.038;16.974;2023-03-23T15:20:45;4.90;;;2.80;;
23634;SDS011;11994;51.038;16.974;2023-03-23T15:23:17;5.70;;;3.40;;
23634;SDS011;11994;51.038;16.974;2023-03-23T15:25:51;4.50;;;2.80;;
23634;SDS011;11994;51.038;16.974;2023-03-23T15:28:19;7.90;;;3.30;;
23634;SDS011;11994;51.038;16.974;2023-03-23T15:30:50;6.00;;;3.30;;
23634;SDS011;11994;51.038;16.974;2023-03-23T15:33:18;7.50;;;3.50;;
23634;SDS011;11994;51.038;16.974;2023-03-23T15:35:49;8.10;;;3.80;;
23634;SDS011;11994;51.038;16.974;2023-03-23T15:38:31;8.00;;;4.30;;
23634;SDS011;11994;51.038;16.974;2023-03-23T15:40:59;10.30;;;3.70;;
23634;SDS011;11994;51.038;16.974;2023-03-23T15:43:27;7.10;;;2.90;;
23634;SDS011;11994;51.038;16.974;2023-03-23T15:45:59;5.90;;;3.30;;
23634;SDS011;11994;51.038;16.974;2023-03-23T15:48:44;5.60;;;2.80;;
23634;SDS011;11994;51.038;16.974;2023-03-23T15:51:15;5.30;;;2.80;;
23634;SDS011;11994;51.038;16.974;2023-03-23T15:53:42;7.20;;;3.10;;
23634;SDS011;11994;51.038;16.974;2023-03-23T15:56:09;5.00;;;2.30;;
23634;SDS011;11994;51.038;16.974;2023-03-23T15:58:35;6.00;;;3.20;;
23634;SDS011;11994;51.038;16.974;2023-03-23T16:01:03;37.00;;;18.50;;
23634;SDS011;11994;51.038;16.974;2023-03-23T16:03:42;20.90;;;10.50;;
23634;SDS011;11994;51.038;16.974;2023-03-23T16:06:12;11.90;;;4.90;;
23634;SDS011;11994;51.038;16.974;2023-03-23T16:08:39;7.80;;;3.40;;
23634;SDS011;11994;51.038;16.974;2023-03-23T16:11:10;8.50;;;3.40;;
23634;SDS011;11994;51.038;16.974;2023-03-23T16:13:37;10.20;;;6.60;;
23634;SDS011;11994;51.038;16.974;2023-03-23T16:16:03;11.00;;;5.70;;
23634;SDS011;11994;51.038;16.974;2023-03-23T16:18:30;7.70;;;4.60;;
23634;SDS011;11994;51.038;16.974;2023-03-23T16:20:55;9.80;;;4.70;;
23634;SDS011;11994;51.038;16.974;2023-03-23T16:23:21;8.80;;;4.90;;
23634;SDS011;11994;51.038;16.974;2023-03-23T16:25:47;8.20;;;4.00;;
23634;SDS011;11994;51.038;16.974;2023-03-23T16:28:13;8.90;;;4.60;;
23634;SDS011;11994;51.038;16.974;2023-03-23T16:30:40;10.60;;;5.10;;
23634;SDS011;11994;51.038;16.974;2023-03-23T16:33:07;9.60;;;5.50;;